createdAt,value
2017-03-02T00:00:06.728Z,29.79
2017-03-02T00:01:06.736Z,29.69
2017-03-02T00:02:06.750Z,29.98
2017-03-02T00:03:06.750Z,29.89
2017-03-02T00:04:06.805Z,29.89
2017-03-02T00:05:06.759Z,29.98
2017-03-02T00:06:06.369Z,29.89
2017-03-02T00:07:06.722Z,29.89
2017-03-02T00:08:06.776Z,29.69
2017-03-02T00:09:06.735Z,29.89
2017-03-02T00:10:07.899Z,29.79
2017-03-02T00:11:06.789Z,30.08
2017-03-02T00:12:06.831Z,30.08
2017-03-02T00:13:07.263Z,30.18
2017-03-02T00:14:21.231Z,30.08
2017-03-02T00:15:06.817Z,29.98
2017-03-02T00:16:06.421Z,29.98
2017-03-02T00:17:06.782Z,30.18
2017-03-02T00:18:06.814Z,30.08
2017-03-02T00:19:06.848Z,30.18
2017-03-02T00:20:06.899Z,29.98
2017-03-02T00:21:07.859Z,29.98
2017-03-02T00:22:06.424Z,29.98
2017-03-02T00:23:06.823Z,30.08
2017-03-02T00:24:06.822Z,30.18
2017-03-02T00:25:06.429Z,29.98
2017-03-02T00:26:06.882Z,30.08
2017-03-02T00:27:06.840Z,29.98
2017-03-02T00:28:06.844Z,30.08
2017-03-02T00:29:06.849Z,29.98
2017-03-02T00:30:06.609Z,29.98
2017-03-02T00:31:06.861Z,30.18
2017-03-02T00:32:07.968Z,29.98
2017-03-02T00:33:06.926Z,30.08
2017-03-02T00:34:06.974Z,29.98
2017-03-02T00:35:06.984Z,30.08
2017-03-02T00:36:06.503Z,30.08
2017-03-02T00:37:07.946Z,29.98
2017-03-02T00:38:06.911Z,30.08
2017-03-02T00:39:07.010Z,30.08
2017-03-02T00:40:06.514Z,30.08
2017-03-02T00:41:06.977Z,30.08
2017-03-02T00:42:06.976Z,30.08
2017-03-02T00:43:08.012Z,29.98
2017-03-02T00:44:06.986Z,30.08
2017-03-02T00:45:06.964Z,30.27
2017-03-02T00:46:07.000Z,30.18
2017-03-02T00:47:06.955Z,30.18
2017-03-02T00:48:06.965Z,30.08
2017-03-02T00:49:06.971Z,30.18
2017-03-02T00:50:07.031Z,29.79
2017-03-02T00:51:06.630Z,30.08
2017-03-02T00:52:06.982Z,29.98
2017-03-02T00:53:07.001Z,30.08
2017-03-02T00:54:07.002Z,29.79
2017-03-02T00:55:06.657Z,30.08
2017-03-02T00:56:07.308Z,30.18
2017-03-02T00:57:07.030Z,30.08
2017-03-02T00:58:07.024Z,30.27
2017-03-02T00:59:07.031Z,29.98
2017-03-02T01:00:07.033Z,30.08
2017-03-02T01:01:06.643Z,30.08
2017-03-02T01:02:07.048Z,30.18
2017-03-02T01:03:07.156Z,30.08
2017-03-02T01:04:07.058Z,30.08
2017-03-02T01:05:06.662Z,30.08
2017-03-02T01:06:07.126Z,30.37
2017-03-02T01:07:07.278Z,30.18
2017-03-02T01:08:07.079Z,30.18
2017-03-02T01:09:06.702Z,30.08
2017-03-02T01:10:07.143Z,30.18
2017-03-02T01:11:07.100Z,29.98
2017-03-02T01:12:07.116Z,29.98
2017-03-02T01:13:07.109Z,30.27
2017-03-02T01:14:07.112Z,30.08
2017-03-02T01:15:07.124Z,30.08
2017-03-02T01:16:08.129Z,30.18
2017-03-02T01:17:07.148Z,30.18
2017-03-02T01:18:07.144Z,30.08
2017-03-02T01:19:07.150Z,30.18
2017-03-02T01:20:07.149Z,29.98
2017-03-02T01:21:07.171Z,30.08
2017-03-02T01:22:07.217Z,30.18
2017-03-02T01:23:07.169Z,30.18
2017-03-02T01:24:07.225Z,30.18
2017-03-02T01:25:07.233Z,30.08
2017-03-02T01:26:07.186Z,30.18
2017-03-02T01:27:07.995Z,30.18
2017-03-02T01:28:07.319Z,29.89
2017-03-02T01:29:07.212Z,30.18
2017-03-02T01:30:07.260Z,30.08
2017-03-02T01:31:08.127Z,30.18
2017-03-02T01:32:07.220Z,29.98
2017-03-02T01:33:07.287Z,30.18
2017-03-02T01:34:07.245Z,29.98
2017-03-02T01:35:07.295Z,30.18
2017-03-02T01:36:07.252Z,30.08
2017-03-02T01:37:07.312Z,29.98
2017-03-02T01:38:07.309Z,30.18
2017-03-02T01:39:06.864Z,29.89
2017-03-02T01:40:07.271Z,30.18
2017-03-02T01:41:07.347Z,29.98
2017-03-02T01:42:08.035Z,29.89
2017-03-02T01:43:07.293Z,30.08
2017-03-02T01:44:07.356Z,30.08
2017-03-02T01:45:07.352Z,29.98
2017-03-02T01:46:07.358Z,30.18
2017-03-02T01:47:07.322Z,30.18
2017-03-02T01:48:07.316Z,29.98
2017-03-02T01:49:07.374Z,29.98
2017-03-02T01:50:07.331Z,30.08
2017-03-02T01:51:08.358Z,29.89
2017-03-02T01:52:06.945Z,30.27
2017-03-02T01:53:07.607Z,30.08
2017-03-02T01:54:07.414Z,29.98
2017-03-02T01:55:07.362Z,30.08
2017-03-02T01:56:07.380Z,29.98
2017-03-02T01:57:07.029Z,30.18
2017-03-02T01:58:07.478Z,30.08
2017-03-02T01:59:07.388Z,30.08
2017-03-02T02:00:07.392Z,30.18
2017-03-02T02:01:07.396Z,30.18
2017-03-02T02:02:07.401Z,30.18
2017-03-02T02:03:07.408Z,30.18
2017-03-02T02:04:07.624Z,30.18
2017-03-02T02:05:07.474Z,30.08
2017-03-02T02:06:08.977Z,30.08
2017-03-02T02:07:07.492Z,30.08
2017-03-02T02:08:07.439Z,30.27
2017-03-02T02:09:07.445Z,30.08
2017-03-02T02:10:07.553Z,30.18
2017-03-02T02:11:07.459Z,30.08
2017-03-02T02:12:07.565Z,29.98
2017-03-02T02:13:08.460Z,30.18
2017-03-02T02:14:07.471Z,29.98
2017-03-02T02:15:07.734Z,29.89
2017-03-02T02:16:07.499Z,30.08
2017-03-02T02:17:07.495Z,30.08
2017-03-02T02:18:07.099Z,30.08
2017-03-02T02:19:07.506Z,29.79
2017-03-02T02:20:07.218Z,30.18
2017-03-02T02:21:07.567Z,30.18
2017-03-02T02:22:07.132Z,30.08
2017-03-02T02:23:07.629Z,30.08
2017-03-02T02:24:07.544Z,30.18
2017-03-02T02:25:07.319Z,30.18
2017-03-02T02:26:07.607Z,30.27
2017-03-02T02:27:07.553Z,30.18
2017-03-02T02:28:08.739Z,30.18
2017-03-02T02:29:07.620Z,30.08
2017-03-02T02:30:07.578Z,30.18
2017-03-02T02:31:07.625Z,30.08
2017-03-02T02:32:07.581Z,29.89
2017-03-02T02:33:07.595Z,30.08
2017-03-02T02:34:07.682Z,29.89
2017-03-02T02:35:07.602Z,30.18
2017-03-02T02:36:07.605Z,29.98
2017-03-02T02:37:07.613Z,30.18
2017-03-02T02:38:07.621Z,29.98
2017-03-02T02:39:08.640Z,30.08
2017-03-02T02:40:07.679Z,30.08
2017-03-02T02:41:07.695Z,30.08
2017-03-02T02:42:07.643Z,30.27
2017-03-02T02:43:07.299Z,30.08
2017-03-02T02:44:07.682Z,29.98
2017-03-02T02:45:07.709Z,29.98
2017-03-02T02:46:07.720Z,30.18
2017-03-02T02:47:07.771Z,30.08
2017-03-02T02:48:07.691Z,30.27
2017-03-02T02:49:07.683Z,30.08
2017-03-02T02:50:08.391Z,29.98
2017-03-02T02:51:07.746Z,30.08
2017-03-02T02:52:07.750Z,29.98
2017-03-02T02:53:08.758Z,30.18
2017-03-02T02:54:07.775Z,29.98
2017-03-02T02:55:07.719Z,30.18
2017-03-02T02:56:07.779Z,29.89
2017-03-02T02:57:07.779Z,30.08
2017-03-02T02:58:07.736Z,30.08
2017-03-02T02:59:08.724Z,30.27
2017-03-02T03:00:07.411Z,29.98
2017-03-02T03:01:08.059Z,29.89
2017-03-02T03:02:07.411Z,29.89
2017-03-02T03:03:07.819Z,29.89
2017-03-02T03:04:07.774Z,29.98
2017-03-02T03:05:07.778Z,29.98
2017-03-02T03:06:07.783Z,30.18
2017-03-02T03:07:07.844Z,30.27
2017-03-02T03:08:07.895Z,30.37
2017-03-02T03:09:07.807Z,29.89
2017-03-02T03:10:07.859Z,29.89
2017-03-02T03:11:07.866Z,29.9
2017-03-02T03:12:08.082Z,29.89
2017-03-02T03:13:07.891Z,30.46
2017-03-02T03:15:07.839Z,30.08
2017-03-02T03:16:07.847Z,29.89
2017-03-02T03:17:07.897Z,30.08
2017-03-02T03:18:07.867Z,29.8
2017-03-02T03:19:07.862Z,29.98
2017-03-02T03:20:07.918Z,29.89
2017-03-02T03:21:07.885Z,29.79
2017-03-02T03:22:07.944Z,29.98
2017-03-02T03:23:07.900Z,29.98
2017-03-02T03:24:07.894Z,30.08
2017-03-02T03:25:09.098Z,30.08
2017-03-02T03:26:07.909Z,30
2017-03-02T03:27:07.961Z,30.1
2017-03-02T03:28:07.970Z,30.08
2017-03-02T03:29:07.984Z,30.1
2017-03-02T03:30:07.978Z,30.08
2017-03-02T03:31:07.947Z,30.08
2017-03-02T03:32:07.939Z,30.08
2017-03-02T03:33:07.946Z,30.08
2017-03-02T03:34:07.951Z,30.18
2017-03-02T03:35:08.010Z,30.19
2017-03-02T03:36:08.779Z,29.98
2017-03-02T03:37:08.022Z,30.1
2017-03-02T03:38:07.982Z,30.1
2017-03-02T03:39:07.981Z,30.08
2017-03-02T03:40:08.051Z,29.89
2017-03-02T03:41:07.995Z,30.08
2017-03-02T03:42:08.054Z,29.79
2017-03-02T03:43:07.708Z,29.89
2017-03-02T03:44:07.614Z,29.98
2017-03-02T03:45:08.125Z,29.6
2017-03-02T03:46:08.022Z,29.79
2017-03-02T03:47:07.632Z,29.61
2017-03-02T03:48:07.694Z,30.18
2017-03-02T03:49:08.115Z,30.08
2017-03-02T03:50:08.096Z,29.6
2017-03-02T03:51:08.055Z,29.89
2017-03-02T03:52:08.120Z,29.89
2017-03-02T03:53:08.124Z,30.08
2017-03-02T03:54:07.725Z,30.18
2017-03-02T03:55:08.128Z,29.98
2017-03-02T03:56:08.097Z,30.08
2017-03-02T03:57:08.201Z,29.89
2017-03-02T03:58:09.214Z,30.37
2017-03-02T03:59:08.113Z,29.98
2017-03-02T04:00:08.108Z,30.08
2017-03-02T04:01:07.717Z,29.89
2017-03-02T04:02:07.718Z,30.08
2017-03-02T04:03:08.238Z,30.37
2017-03-02T04:04:08.181Z,29.89
2017-03-02T04:05:08.199Z,29.98
2017-03-02T04:06:08.203Z,29.98
2017-03-02T04:07:08.906Z,29.69
2017-03-02T04:08:08.206Z,29.98
2017-03-02T04:09:08.962Z,29.79
2017-03-02T04:10:08.167Z,29.69
2017-03-02T04:11:08.220Z,29.79
2017-03-02T04:12:08.251Z,29.79
2017-03-02T04:13:08.237Z,29.69
2017-03-02T04:14:08.330Z,29.89
2017-03-02T04:15:08.210Z,30.29
2017-03-02T04:16:08.261Z,29.89
2017-03-02T04:17:08.259Z,29.98
2017-03-02T04:18:08.264Z,29.69
2017-03-02T04:19:08.276Z,29.79
2017-03-02T04:20:08.876Z,29.89
2017-03-02T04:21:08.236Z,29.79
2017-03-02T04:22:08.238Z,30.37
2017-03-02T04:23:08.255Z,29.79
2017-03-02T04:24:07.950Z,29.79
2017-03-02T04:25:08.319Z,29.89
2017-03-02T04:26:08.267Z,29.98
2017-03-02T04:27:09.277Z,30.08
2017-03-02T04:28:08.273Z,30.08
2017-03-02T04:29:08.288Z,29.98
2017-03-02T04:30:07.892Z,29.71
2017-03-02T04:31:10.188Z,29.52
2017-03-02T04:32:07.945Z,29.8
2017-03-02T04:33:08.319Z,29.42
2017-03-02T04:34:08.307Z,29.61
2017-03-02T04:35:08.312Z,29.42
2017-03-02T04:36:08.323Z,29.22
2017-03-02T04:37:08.377Z,29.32
2017-03-02T04:38:08.332Z,29.22
2017-03-02T04:39:08.393Z,29.22
2017-03-02T04:40:07.955Z,29.22
2017-03-02T04:41:08.302Z,29.22
2017-03-02T04:42:08.003Z,29.32
2017-03-02T04:43:08.410Z,29.42
2017-03-02T04:44:09.145Z,29.42
2017-03-02T04:45:08.072Z,29.32
2017-03-02T04:46:08.445Z,29.32
2017-03-02T04:47:08.434Z,29.42
2017-03-02T04:48:08.391Z,29.42
2017-03-02T04:49:08.396Z,29.32
2017-03-02T04:50:08.452Z,29.03
2017-03-02T04:51:08.413Z,29.42
2017-03-02T04:52:08.467Z,29.42
2017-03-02T04:53:08.445Z,29.42
2017-03-02T04:54:08.477Z,29.42
2017-03-02T04:55:09.487Z,29.42
2017-03-02T04:56:08.452Z,29.22
2017-03-02T04:57:08.551Z,29.32
2017-03-02T04:58:08.509Z,29.42
2017-03-02T04:59:08.460Z,29.13
2017-03-02T05:00:08.474Z,29.03
2017-03-02T05:01:08.519Z,28.94
2017-03-02T05:02:08.131Z,28.94
2017-03-02T05:03:08.136Z,28.94
2017-03-02T05:04:08.542Z,28.94
2017-03-02T05:05:08.099Z,29.03
2017-03-02T05:06:09.252Z,28.95
2017-03-02T05:07:08.605Z,29.03
2017-03-02T05:08:08.561Z,28.94
2017-03-02T05:09:08.523Z,28.84
2017-03-02T05:10:08.825Z,28.84
2017-03-02T05:11:08.580Z,28.94
2017-03-02T05:12:08.585Z,29.42
2017-03-02T05:13:08.540Z,29.52
2017-03-02T05:14:11.504Z,29.32
2017-03-02T05:15:08.556Z,29.42
2017-03-02T05:16:08.608Z,29.42
2017-03-02T05:17:08.869Z,29.32
2017-03-02T05:18:08.573Z,29.32
2017-03-02T05:19:08.234Z,29.42
2017-03-02T05:20:08.667Z,29.42
2017-03-02T05:21:08.590Z,29.61
2017-03-02T05:22:08.250Z,28.94
2017-03-02T05:23:08.660Z,28.94
2017-03-02T05:24:08.656Z,28.94
2017-03-02T05:25:08.614Z,28.94
2017-03-02T05:26:08.669Z,28.94
2017-03-02T05:27:08.684Z,28.94
2017-03-02T05:28:08.883Z,28.84
2017-03-02T05:29:08.687Z,28.94
2017-03-02T05:30:08.246Z,29.61
2017-03-02T05:31:08.719Z,28.94
2017-03-02T05:32:09.008Z,28.94
2017-03-02T05:33:08.667Z,28.94
2017-03-02T05:34:08.724Z,28.94
2017-03-02T05:35:08.723Z,29.03
2017-03-02T05:36:08.727Z,29.03
2017-03-02T05:37:08.689Z,28.94
2017-03-02T05:38:08.790Z,29.03
2017-03-02T05:39:08.696Z,28.94
2017-03-02T05:40:08.702Z,28.94
2017-03-02T05:41:09.846Z,29.03
2017-03-02T05:42:08.716Z,28.94
2017-03-02T05:43:08.927Z,29.03
2017-03-02T05:44:08.726Z,29.03
2017-03-02T05:45:08.784Z,29.03
2017-03-02T05:46:08.747Z,29.03
2017-03-02T05:47:08.795Z,29.13
2017-03-02T05:48:08.754Z,28.94
2017-03-02T05:49:08.809Z,29.03
2017-03-02T05:50:08.770Z,29.03
2017-03-02T05:51:08.775Z,28.94
2017-03-02T05:52:09.926Z,29.03
2017-03-02T05:53:08.784Z,28.94
2017-03-02T05:54:08.838Z,29.03
2017-03-02T05:55:08.796Z,28.94
2017-03-02T05:56:08.863Z,29.13
2017-03-02T05:57:08.929Z,29.03
2017-03-02T05:58:08.818Z,29.13
2017-03-02T05:59:08.871Z,29.13
2017-03-02T06:00:08.829Z,28.94
2017-03-02T06:01:08.882Z,29.03
2017-03-02T06:02:08.947Z,29.03
2017-03-02T06:03:09.944Z,29.13
2017-03-02T06:04:08.905Z,29.13
2017-03-02T06:05:08.913Z,29.22
2017-03-02T06:06:08.858Z,29.13
2017-03-02T06:07:08.467Z,29.13
2017-03-02T06:08:09.572Z,29.13
2017-03-02T06:09:08.494Z,29.22
2017-03-02T06:10:08.938Z,29.22
2017-03-02T06:11:08.590Z,29.22
2017-03-02T06:12:08.898Z,29.13
2017-03-02T06:13:08.962Z,29.22
2017-03-02T06:14:09.317Z,29.13
2017-03-02T06:15:08.912Z,29.22
2017-03-02T06:16:08.581Z,29.22
2017-03-02T06:17:08.925Z,29.13
2017-03-02T06:18:09.656Z,29.22
2017-03-02T06:19:08.990Z,29.13
2017-03-02T06:20:08.995Z,29.22
2017-03-02T06:21:08.603Z,29.13
2017-03-02T06:22:09.005Z,29.22
2017-03-02T06:23:09.119Z,29.13
2017-03-02T06:24:09.015Z,29.13
2017-03-02T06:25:08.979Z,29.22
2017-03-02T06:26:08.582Z,29.13
2017-03-02T06:27:08.593Z,29.13
2017-03-02T06:28:08.991Z,29.13
2017-03-02T06:29:10.101Z,29.22
2017-03-02T06:30:08.608Z,29.13
2017-03-02T06:31:08.644Z,29.03
2017-03-02T06:32:09.018Z,28.94
2017-03-02T06:33:09.075Z,28.94
2017-03-02T06:34:08.630Z,29.03
2017-03-02T06:35:09.036Z,28.94
2017-03-02T06:36:08.701Z,29.03
2017-03-02T06:37:09.095Z,29.03
2017-03-02T06:38:09.107Z,28.94
2017-03-02T06:39:09.071Z,28.74
2017-03-02T06:40:09.779Z,29.03
2017-03-02T06:41:08.722Z,29.03
2017-03-02T06:42:09.127Z,29.03
2017-03-02T06:43:08.712Z,28.74
2017-03-02T06:44:10.907Z,29.03
2017-03-02T06:45:08.746Z,29.13
2017-03-02T06:46:09.099Z,28.84
2017-03-02T06:47:08.707Z,28.84
2017-03-02T06:48:09.118Z,29.13
2017-03-02T06:49:09.119Z,28.84
2017-03-02T06:50:09.128Z,28.84
2017-03-02T06:51:09.687Z,28.84
2017-03-02T06:52:08.741Z,28.94
2017-03-02T06:53:08.748Z,28.84
2017-03-02T06:54:09.199Z,28.84
2017-03-02T06:55:09.205Z,28.84
2017-03-02T06:56:09.219Z,28.94
2017-03-02T06:57:09.166Z,29.13
2017-03-02T06:58:08.823Z,28.84
2017-03-02T06:59:09.180Z,29.13
2017-03-02T07:00:08.832Z,28.84
2017-03-02T07:01:09.275Z,29.03
2017-03-02T07:02:09.499Z,28.94
2017-03-02T07:03:09.213Z,28.94
2017-03-02T07:04:08.808Z,28.74
2017-03-02T07:05:09.215Z,29.03
2017-03-02T07:06:08.820Z,29.03
2017-03-02T07:07:09.275Z,28.94
2017-03-02T07:08:09.232Z,28.94
2017-03-02T07:09:09.289Z,28.84
2017-03-02T07:10:09.246Z,28.74
2017-03-02T07:11:09.250Z,28.84
2017-03-02T07:12:09.255Z,28.94
2017-03-02T07:13:09.075Z,28.64
2017-03-02T07:14:08.922Z,28.74
2017-03-02T07:15:10.293Z,28.84
2017-03-02T07:16:09.330Z,28.94
2017-03-02T07:17:09.337Z,28.55
2017-03-02T07:18:09.292Z,28.55
2017-03-02T07:19:09.299Z,28.45
2017-03-02T07:20:09.317Z,28.36
2017-03-02T07:21:09.320Z,28.26
2017-03-02T07:22:09.362Z,28.16
2017-03-02T07:23:09.372Z,28.26
2017-03-02T07:24:09.478Z,28.26
2017-03-02T07:25:09.336Z,28.55
2017-03-02T07:26:09.340Z,28.36
2017-03-02T07:27:09.356Z,28.55
2017-03-02T07:28:09.350Z,28.45
2017-03-02T07:29:09.411Z,28.45
2017-03-02T07:30:09.464Z,28.36
2017-03-02T07:31:09.372Z,27.97
2017-03-02T07:32:09.425Z,28.16
2017-03-02T07:33:09.383Z,28.26
2017-03-02T07:34:09.395Z,27.7
2017-03-02T07:35:09.843Z,27.7
2017-03-02T07:36:09.454Z,27.6
2017-03-02T07:37:10.480Z,27.13
2017-03-02T07:38:09.462Z,26.84
2017-03-02T07:39:09.465Z,26.65
2017-03-02T07:40:09.437Z,26.37
2017-03-02T07:41:09.491Z,26.28
2017-03-02T07:42:09.437Z,25.98
2017-03-02T07:43:09.553Z,25.9
2017-03-02T07:44:09.515Z,25.51
2017-03-02T07:45:09.455Z,25.34
2017-03-02T07:46:09.911Z,25.14
2017-03-02T07:47:09.516Z,24.85
2017-03-02T07:48:09.534Z,24.66
2017-03-02T07:49:09.484Z,24.56
2017-03-02T07:50:09.560Z,24.66
2017-03-02T07:51:09.502Z,24.38
2017-03-02T07:52:09.495Z,24.18
2017-03-02T07:53:09.601Z,24.28
2017-03-02T07:54:09.612Z,23.99
2017-03-02T07:55:09.620Z,23.99
2017-03-02T07:56:09.577Z,24.09
2017-03-02T07:57:09.534Z,24.1
2017-03-02T07:58:09.589Z,24.19
2017-03-02T07:59:09.594Z,24.09
2017-03-02T08:00:09.547Z,24.18
2017-03-02T08:01:10.055Z,24.1
2017-03-02T08:02:09.214Z,24.1
2017-03-02T08:03:09.627Z,24.19
2017-03-02T08:04:09.625Z,24.19
2017-03-02T08:05:09.635Z,24.29
2017-03-02T08:06:09.500Z,24.01
2017-03-02T08:07:09.642Z,24.29
2017-03-02T08:08:09.650Z,23.52
2017-03-02T08:09:09.709Z,23.81
2017-03-02T08:10:09.317Z,23.71
2017-03-02T08:11:09.721Z,23.33
2017-03-02T08:12:09.782Z,23.52
2017-03-02T08:13:09.680Z,23.42
2017-03-02T08:14:24.162Z,23.71
2017-03-02T08:15:09.701Z,23.61
2017-03-02T08:16:09.271Z,23.81
2017-03-02T08:17:09.689Z,23.71
2017-03-02T08:18:09.723Z,23.71
2017-03-02T08:19:09.327Z,23.33
2017-03-02T08:20:09.682Z,23.42
2017-03-02T08:21:09.388Z,23.42
2017-03-02T08:22:09.799Z,23.33
2017-03-02T08:23:10.254Z,23.33
2017-03-02T08:24:09.773Z,23.33
2017-03-02T08:25:09.767Z,23.33
2017-03-02T08:26:09.726Z,23.42
2017-03-02T08:27:09.440Z,23.33
2017-03-02T08:28:09.853Z,23.33
2017-03-02T08:29:09.798Z,23.42
2017-03-02T08:30:09.803Z,23.71
2017-03-02T08:31:09.809Z,23.71
2017-03-02T08:32:09.822Z,23.42
2017-03-02T08:33:09.772Z,23.42
2017-03-02T08:34:10.080Z,23.61
2017-03-02T08:35:09.835Z,23.33
2017-03-02T08:36:09.894Z,23.42
2017-03-02T08:37:09.854Z,23.03
2017-03-02T08:38:09.860Z,23.13
2017-03-02T08:39:09.817Z,23.03
2017-03-02T08:40:09.824Z,24.01
2017-03-02T08:41:09.433Z,23.33
2017-03-02T08:42:09.947Z,23.71
2017-03-02T08:43:10.997Z,23.03
2017-03-02T08:44:09.902Z,23.13
2017-03-02T08:45:09.855Z,23.23
2017-03-02T08:46:09.565Z,23.14
2017-03-02T08:47:09.882Z,23.42
2017-03-02T08:48:09.931Z,23.33
2017-03-02T08:49:09.935Z,22.94
2017-03-02T08:50:09.941Z,23.33
2017-03-02T08:51:09.965Z,23.23
2017-03-02T08:52:09.967Z,23.33
2017-03-02T08:53:09.964Z,23.24
2017-03-02T08:54:10.033Z,23.05
2017-03-02T08:55:09.981Z,23.81
2017-03-02T08:56:10.034Z,23.03
2017-03-02T08:57:10.042Z,23.72
2017-03-02T08:58:10.565Z,23.71
2017-03-02T08:59:09.957Z,23.91
2017-03-02T09:00:09.568Z,23.61
2017-03-02T09:01:09.976Z,23.81
2017-03-02T09:02:10.081Z,23.42
2017-03-02T09:03:10.047Z,23.23
2017-03-02T09:04:10.094Z,23.42
2017-03-02T09:05:09.997Z,22.95
2017-03-02T09:06:10.058Z,23.24
2017-03-02T09:07:10.064Z,23.33
2017-03-02T09:08:09.624Z,23.33
2017-03-02T09:09:11.028Z,23.71
2017-03-02T09:10:09.688Z,23.81
2017-03-02T09:11:10.095Z,23.24
2017-03-02T09:12:10.058Z,23.24
2017-03-02T09:13:10.076Z,23.24
2017-03-02T09:14:10.171Z,23.33
2017-03-02T09:15:10.077Z,23.24
2017-03-02T09:16:10.078Z,23.05
2017-03-02T09:17:10.185Z,23.14
2017-03-02T09:18:09.755Z,23.14
2017-03-02T09:19:10.147Z,23.05
2017-03-02T09:20:10.907Z,23.05
2017-03-02T09:21:10.108Z,23.14
2017-03-02T09:22:10.170Z,23.33
2017-03-02T09:23:10.227Z,23.81
2017-03-02T09:24:10.182Z,23.33
2017-03-02T09:25:10.139Z,23.71
2017-03-02T09:26:10.147Z,23.33
2017-03-02T09:27:10.206Z,23.43
2017-03-02T09:28:10.166Z,23.14
2017-03-02T09:29:09.820Z,23.05
2017-03-02T09:30:09.788Z,23.72
2017-03-02T09:31:10.640Z,23.63
2017-03-02T09:32:10.237Z,23.33
2017-03-02T09:33:10.200Z,23.53
2017-03-02T09:34:10.260Z,23.33
2017-03-02T09:35:10.262Z,23.24
2017-03-02T09:36:10.269Z,23.72
2017-03-02T09:37:10.233Z,23.63
2017-03-02T09:38:10.311Z,23.63
2017-03-02T09:39:10.290Z,23.43
2017-03-02T09:40:10.294Z,23.24
2017-03-02T09:41:10.252Z,23.43
2017-03-02T09:42:10.707Z,23.24
2017-03-02T09:43:09.870Z,23.24
2017-03-02T09:44:11.305Z,23.24
2017-03-02T09:45:09.883Z,23.14
2017-03-02T09:46:10.335Z,23.43
2017-03-02T09:47:10.356Z,23.33
2017-03-02T09:48:10.320Z,23.33
2017-03-02T09:49:10.307Z,23.05
2017-03-02T09:50:10.320Z,22.86
2017-03-02T09:51:10.423Z,23.24
2017-03-02T09:52:10.342Z,23.33
2017-03-02T09:53:10.336Z,23.33
2017-03-02T09:54:10.353Z,23.33
2017-03-02T09:55:11.526Z,23.24
2017-03-02T09:56:10.008Z,23.33
2017-03-02T09:57:10.366Z,23.43
2017-03-02T09:58:10.427Z,23.43
2017-03-02T09:59:10.682Z,23.53
2017-03-02T10:00:10.433Z,23.24
2017-03-02T10:01:10.396Z,23.14
2017-03-02T10:02:10.503Z,23.24
2017-03-02T10:03:10.418Z,23.24
2017-03-02T10:04:10.416Z,23.14
2017-03-02T10:05:10.435Z,23.24
2017-03-02T10:06:11.578Z,23.82
2017-03-02T10:07:10.788Z,23.71
2017-03-02T10:08:10.095Z,23.33
2017-03-02T10:09:10.450Z,23.33
2017-03-02T10:10:10.509Z,23.33
2017-03-02T10:11:10.496Z,23.71
2017-03-02T10:12:10.574Z,23.05
2017-03-02T10:13:10.531Z,23.14
2017-03-02T10:14:10.548Z,23.24
2017-03-02T10:15:10.553Z,23.33
2017-03-02T10:16:10.106Z,23.05
2017-03-02T10:17:11.557Z,23.33
2017-03-02T10:18:10.564Z,23.43
2017-03-02T10:19:10.573Z,23.43
2017-03-02T10:20:10.184Z,23.33
2017-03-02T10:21:10.638Z,23.64
2017-03-02T10:22:10.544Z,23.24
2017-03-02T10:23:10.602Z,23.14
2017-03-02T10:24:10.558Z,23.05
2017-03-02T10:25:10.174Z,23.14
2017-03-02T10:26:10.624Z,23.14
2017-03-02T10:27:10.639Z,23.24
2017-03-02T10:28:11.388Z,23.33
2017-03-02T10:29:10.706Z,23.33
2017-03-02T10:30:10.651Z,23.23
2017-03-02T10:31:10.268Z,22.85
2017-03-02T10:32:10.619Z,23.33
2017-03-02T10:33:10.634Z,23.33
2017-03-02T10:34:10.688Z,23.14
2017-03-02T10:35:10.687Z,23.33
2017-03-02T10:36:10.420Z,23.33
2017-03-02T10:37:10.651Z,23.43
2017-03-02T10:38:10.659Z,23.05
2017-03-02T10:39:11.365Z,23.14
2017-03-02T10:40:10.678Z,23.05
2017-03-02T10:41:10.749Z,23.53
2017-03-02T10:42:10.689Z,23.33
2017-03-02T10:43:10.693Z,23.33
2017-03-02T10:44:10.766Z,23.05
2017-03-02T10:45:10.318Z,22.85
2017-03-02T10:46:10.718Z,22.95
2017-03-02T10:47:10.820Z,23.43
2017-03-02T10:48:10.389Z,23.24
2017-03-02T10:49:10.798Z,23.24
2017-03-02T10:50:11.194Z,23.23
2017-03-02T10:51:10.812Z,23.33
2017-03-02T10:52:10.815Z,22.85
2017-03-02T10:53:10.418Z,23.05
2017-03-02T10:54:10.826Z,23.24
2017-03-02T10:55:10.777Z,23.14
2017-03-02T10:56:10.407Z,23.24
2017-03-02T10:57:10.893Z,23.43
2017-03-02T10:58:10.857Z,23.24
2017-03-02T10:59:10.863Z,23.43
2017-03-02T11:00:10.822Z,23.24
2017-03-02T11:01:10.776Z,23.24
2017-03-02T11:02:10.879Z,23.14
2017-03-02T11:03:10.888Z,23.33
2017-03-02T11:04:10.902Z,23.14
2017-03-02T11:05:10.850Z,23.14
2017-03-02T11:06:10.879Z,23.43
2017-03-02T11:07:10.867Z,23.33
2017-03-02T11:08:10.872Z,23.05
2017-03-02T11:09:10.532Z,23.33
2017-03-02T11:10:10.894Z,23.14
2017-03-02T11:11:10.892Z,23.23
2017-03-02T11:12:11.005Z,23.33
2017-03-02T11:13:10.615Z,23.24
2017-03-02T11:14:12.037Z,23.63
2017-03-02T11:15:11.030Z,22.85
2017-03-02T11:16:11.033Z,23.24
2017-03-02T11:17:11.011Z,23.43
2017-03-02T11:18:10.545Z,23.33
2017-03-02T11:19:10.998Z,23.23
2017-03-02T11:20:11.009Z,23.81
2017-03-02T11:21:10.968Z,24.19
2017-03-02T11:22:11.074Z,24.39
2017-03-02T11:23:11.013Z,24.11
2017-03-02T11:24:10.692Z,24.01
2017-03-02T11:25:12.044Z,24.29
2017-03-02T11:26:11.050Z,24.29
2017-03-02T11:27:11.010Z,23.81
2017-03-02T11:28:11.018Z,24.02
2017-03-02T11:29:10.690Z,23.82
2017-03-02T11:30:11.079Z,23.33
2017-03-02T11:31:11.054Z,24.02
2017-03-02T11:32:10.746Z,23.82
2017-03-02T11:33:11.052Z,24.4
2017-03-02T11:34:10.668Z,23.05
2017-03-02T11:35:11.064Z,23.63
2017-03-02T11:36:11.928Z,22.96
2017-03-02T11:37:11.131Z,23.16
2017-03-02T11:38:10.789Z,23.25
2017-03-02T11:39:11.143Z,23.05
2017-03-02T11:40:11.105Z,23.24
2017-03-02T11:41:11.164Z,23.14
2017-03-02T11:42:11.165Z,23.33
2017-03-02T11:43:11.180Z,23.63
2017-03-02T11:44:11.130Z,23.24
2017-03-02T11:45:11.261Z,23.14
2017-03-02T11:46:11.144Z,23.72
2017-03-02T11:47:11.754Z,23.14
2017-03-02T11:48:10.816Z,23.24
2017-03-02T11:49:11.174Z,23.33
2017-03-02T11:50:10.828Z,23.25
2017-03-02T11:51:11.190Z,23.06
2017-03-02T11:52:11.190Z,23.72
2017-03-02T11:53:11.259Z,24.02
2017-03-02T11:54:10.813Z,24.11
2017-03-02T11:55:11.226Z,23.92
2017-03-02T11:56:11.218Z,24.02
2017-03-02T11:57:11.225Z,24.3
2017-03-02T11:58:11.851Z,23.82
2017-03-02T11:59:11.308Z,23.92
2017-03-02T12:00:11.252Z,24.02
2017-03-02T12:01:10.910Z,24.11
2017-03-02T12:02:11.920Z,24.21
2017-03-02T12:03:11.368Z,23.82
2017-03-02T12:04:11.327Z,24.11
2017-03-02T12:05:11.285Z,24.3
2017-03-02T12:06:11.394Z,24.4
2017-03-02T12:07:11.362Z,24.3
2017-03-02T12:08:11.306Z,24.1
2017-03-02T12:09:11.312Z,24.21
2017-03-02T12:10:11.319Z,24.19
2017-03-02T12:11:11.079Z,24.3
2017-03-02T12:12:11.400Z,24.19
2017-03-02T12:13:11.693Z,24.39
2017-03-02T12:14:11.347Z,24.21
2017-03-02T12:15:11.412Z,23.92
2017-03-02T12:16:11.366Z,23.53
2017-03-02T12:17:11.369Z,23.33
2017-03-02T12:18:11.035Z,23.74
2017-03-02T12:19:11.436Z,24.21
2017-03-02T12:20:11.495Z,23.92
2017-03-02T12:21:11.003Z,24.3
2017-03-02T12:22:11.013Z,23.72
2017-03-02T12:23:11.064Z,23.43
2017-03-02T12:24:11.625Z,23.82
2017-03-02T12:25:11.436Z,24.11
2017-03-02T12:26:11.103Z,24.11
2017-03-02T12:27:11.446Z,23.81
2017-03-02T12:28:11.562Z,24.02
2017-03-02T12:29:11.557Z,23.33
2017-03-02T12:30:11.474Z,23.33
2017-03-02T12:31:11.486Z,23.14
2017-03-02T12:32:11.532Z,23.24
2017-03-02T12:33:12.681Z,23.24
2017-03-02T12:34:11.552Z,23.24
2017-03-02T12:35:12.114Z,23.63
2017-03-02T12:36:11.574Z,23.43
2017-03-02T12:37:11.565Z,23.14
2017-03-02T12:38:11.573Z,23.24
2017-03-02T12:39:11.581Z,23.24
2017-03-02T12:40:11.546Z,23.24
2017-03-02T12:41:11.597Z,23.33
2017-03-02T12:42:11.550Z,23.24
2017-03-02T12:43:11.621Z,23.43
2017-03-02T12:45:11.579Z,23.82
2017-03-02T12:46:11.637Z,24.21
2017-03-02T12:47:11.592Z,24.11
2017-03-02T12:48:12.777Z,23.82
2017-03-02T12:49:11.652Z,24.29
2017-03-02T12:50:11.610Z,24.49
2017-03-02T12:51:11.678Z,24.4
2017-03-02T12:52:11.277Z,24.6
2017-03-02T12:53:11.644Z,24.4
2017-03-02T12:54:11.702Z,24.21
2017-03-02T12:55:12.616Z,24.4